Time;durP1;ratioP1;P1;durP2;ratioP2;P2;SDS_P1;SDS_P2;PMS_P1;PMS_P2;Temp;Humidity;BMP_temperature;BMP_pressure;BME280_temperature;BME280_humidity;BME280_pressure;Samples;Min_cycle;Max_cycle;Signal;HPM_P1;HPM_P2
2021/10/23 00:04:47;;;;;;;1999.90;999.90;;;;;;;7.57;74.46;101308.16;15588894;28;20041;-61
2021/10/23 00:12:21;;;;;;;1999.90;999.90;;;;;;;7.81;73.66;101303.41;15617497;28;20073;-61
2021/10/23 00:19:54;;;;;;;1999.90;999.90;;;;;;;7.67;74.12;101309.97;15616340;28;20457;-60
2021/10/23 00:27:28;;;;;;;1999.90;999.90;;;;;;;7.57;74.20;101321.22;15615383;28;20044;-62
2021/10/23 00:35:02;;;;;;;1999.90;999.90;;;;;;;7.75;73.58;101329.59;15615365;28;20108;-59
2021/10/23 00:42:36;;;;;;;1999.90;999.90;;;;;;;7.66;73.90;101341.66;15537144;28;20054;-61
2021/10/23 00:50:09;;;;;;;1999.90;999.90;;;;;;;7.61;73.75;101353.69;15536875;28;20076;-60
2021/10/23 00:57:43;;;;;;;1999.90;999.90;;;;;;;7.73;73.95;101358.78;15552343;28;20042;-61
2021/10/23 01:05:15;;;;;;;1999.90;999.90;;;;;;;7.62;74.66;101360.06;15554024;28;20125;-61
2021/10/23 01:12:49;;;;;;;1999.90;999.90;;;;;;;7.65;74.52;101362.22;15554005;28;20069;-60
2021/10/23 01:20:25;;;;;;;1999.90;999.90;;;;;;;7.84;73.96;101376.16;15535047;28;20116;-61
2021/10/23 01:27:59;;;;;;;1999.90;999.90;;;;;;;7.60;74.57;101374.22;15550916;28;20046;-61
2021/10/23 01:35:34;;;;;;;1999.90;999.90;;;;;;;7.73;74.68;101392.13;15555024;28;20034;-61
2021/10/23 01:43:06;;;;;;;1999.90;999.90;;;;;;;7.63;74.55;101390.31;15611739;28;20046;-61
2021/10/23 01:50:40;;;;;;;1999.90;999.90;;;;;;;7.70;74.66;101399.09;15611010;28;20140;-61
2021/10/23 01:58:14;;;;;;;1999.90;999.90;;;;;;;7.66;74.79;101392.47;15611426;28;20128;-59
2021/10/23 02:05:48;;;;;;;1999.90;999.90;;;;;;;7.80;73.90;101409.25;15610168;28;20465;-57
2021/10/23 02:13:21;;;;;;;1999.90;999.90;;;;;;;7.56;74.91;101422.34;15611644;28;20537;-58
2021/10/23 02:20:55;;;;;;;1999.90;999.90;;;;;;;7.64;74.26;101430.03;15610592;28;20038;-61
2021/10/23 02:28:27;;;;;;;1999.90;999.90;;;;;;;7.87;73.90;101436.69;15611376;28;20096;-57
2021/10/23 02:36:01;;;;;;;1999.90;999.90;;;;;;;7.59;74.50;101455.06;15600826;28;20080;-60
2021/10/23 02:43:34;;;;;;;1999.90;999.90;;;;;;;7.66;74.07;101463.88;15554944;28;20395;-59
2021/10/23 02:51:08;;;;;;;1999.90;999.90;;;;;;;7.68;74.38;101470.78;15561026;28;20483;-61
2021/10/23 02:58:42;;;;;;;1999.90;999.90;;;;;;;7.49;74.82;101483.78;15605294;28;20111;-61
2021/10/23 03:06:18;;;;;;;1999.90;999.90;;;;;;;7.62;74.20;101485.06;15623592;28;20501;-60
2021/10/23 03:13:51;;;;;;;1999.90;999.90;;;;;;;7.75;73.57;101498.22;15622073;28;20049;-61
2021/10/23 03:21:24;;;;;;;1999.90;999.90;;;;;;;7.67;73.98;101509.97;15619151;28;20159;-61
2021/10/23 03:28:57;;;;;;;1999.90;999.90;;;;;;;7.64;73.99;101505.84;15620351;28;20126;-60
2021/10/23 03:36:31;;;;;;;1999.90;999.90;;;;;;;7.76;73.67;101497.94;15606892;28;20042;-59
2021/10/23 03:44:06;;;;;;;1999.90;999.90;;;;;;;7.72;73.51;101507.16;15540416;28;20070;-61
2021/10/23 03:51:39;;;;;;;1999.90;999.90;;;;;;;7.53;74.25;101516.25;15570792;23;20096;-57
2021/10/23 03:59:13;;;;;;;1999.90;999.90;;;;;;;7.56;73.95;101522.31;15562355;28;20565;-60
2021/10/23 04:06:47;;;;;;;1999.90;999.90;;;;;;;7.58;73.98;101536.75;15561640;28;20042;-60
2021/10/23 04:14:19;;;;;;;1999.90;999.90;;;;;;;7.51;73.95;101534.31;15543352;28;20058;-60
2021/10/23 04:21:53;;;;;;;1999.90;999.90;;;;;;;7.75;73.59;101549.06;15560003;28;20046;-60
2021/10/23 04:29:27;;;;;;;1999.90;999.90;;;;;;;8.13;72.63;101556.69;15560475;28;20526;-58
2021/10/23 04:37:01;;;;;;;1999.90;999.90;;;;;;;7.85;72.71;101567.59;15559951;28;20470;-60
2021/10/23 04:44:33;;;;;;;1999.90;999.90;;;;;;;7.74;72.99;101572.41;15558411;28;20041;-61
2021/10/23 04:52:07;;;;;;;1999.90;999.90;;;;;;;7.79;73.05;101575.13;15559149;28;20517;-60
2021/10/23 04:59:44;;;;;;;1999.90;999.90;;;;;;;7.80;72.66;101568.44;15559208;28;20077;-61
2021/10/23 05:07:37;;;;;;;1999.90;999.90;;;;;;;7.78;73.02;101573.47;15558109;28;20145;-60
2021/10/23 05:15:10;;;;;;;1999.90;999.90;;;;;;;7.64;73.46;101566.13;15557897;28;20074;-60
2021/10/23 05:22:43;;;;;;;1999.90;999.90;;;;;;;7.63;73.71;101576.44;15557680;28;20101;-60
2021/10/23 05:30:15;;;;;;;1999.90;999.90;;;;;;;7.42;74.58;101575.78;15557767;28;20064;-62
2021/10/23 05:37:49;;;;;;;1999.90;999.90;;;;;;;7.46;74.33;101592.69;15532891;28;20451;-60
2021/10/23 05:45:21;;;;;;;1999.90;999.90;;;;;;;7.51;74.12;101595.44;15495046;28;20034;-61
2021/10/23 05:52:54;;;;;;;1999.90;999.90;;;;;;;7.45;74.29;101605.75;15496458;28;20125;-58
2021/10/23 06:00:26;;;;;;;1999.90;999.90;;;;;;;7.76;73.58;101613.81;15495302;28;20495;-60
2021/10/23 06:07:59;;;;;;;1999.90;999.90;;;;;;;7.68;73.82;101633.88;15494702;28;20411;-60
2021/10/23 06:15:30;;;;;;;1999.90;999.90;;;;;;;7.71;73.99;101636.06;15493767;28;20105;-61
2021/10/23 06:23:03;;;;;;;1999.90;999.90;;;;;;;7.69;74.03;101652.19;15493887;28;20047;-60
2021/10/23 06:30:35;;;;;;;1999.90;999.90;;;;;;;8.08;72.70;101666.00;15494568;28;20117;-60
2021/10/23 06:38:08;;;;;;;1999.90;999.90;;;;;;;8.15;72.39;101677.63;15517798;28;20077;-60
2021/10/23 06:46:00;;;;;;;1999.90;999.90;;;;;;;8.05;73.02;101699.97;15554589;28;20046;-60
2021/10/23 06:53:54;;;;;;;1999.90;999.90;;;;;;;8.35;72.03;101716.38;15553095;28;20057;-60
2021/10/23 07:01:44;;;;;;;1999.90;999.90;;;;;;;9.00;69.30;101738.19;15554641;28;20107;-60
2021/10/23 07:09:35;;;;;;;1999.90;999.90;;;;;;;8.97;69.70;101738.78;15553553;28;20625;-60
2021/10/23 07:17:27;;;;;;;1999.90;999.90;;;;;;;10.04;66.25;101756.72;15553678;28;20089;-61
2021/10/23 07:25:00;;;;;;;1999.90;999.90;;;;;;;10.29;65.14;101761.06;15553661;28;20056;-61
2021/10/23 07:32:34;;;;;;;1999.90;999.90;;;;;;;10.25;64.76;101772.00;15562663;28;20050;-60
2021/10/23 07:40:10;;;;;;;1999.90;999.90;;;;;;;10.63;64.25;101792.25;15523919;28;20047;-60
2021/10/23 07:47:44;;;;;;;1999.90;999.90;;;;;;;11.37;62.11;101805.31;15502769;28;20053;-58
2021/10/23 07:55:18;;;;;;;1999.90;999.90;;;;;;;11.67;60.63;101820.56;15505668;28;20047;-60
2021/10/23 08:02:55;;;;;;;1999.90;999.90;;;;;;;11.57;60.99;101836.47;15500284;28;20046;-60
2021/10/23 08:10:30;;;;;;;1999.90;999.90;;;;;;;11.98;60.12;101845.91;15501218;28;20133;-60
2021/10/23 08:18:03;;;;;;;1999.90;999.90;;;;;;;12.20;59.49;101873.13;15501248;28;20046;-60
2021/10/23 08:25:37;;;;;;;1999.90;999.90;;;;;;;12.04;59.50;101862.28;15500982;28;20474;-60
2021/10/23 08:33:10;;;;;;;1999.90;999.90;;;;;;;12.42;58.16;101865.56;15499170;28;20309;-62
2021/10/23 08:40:44;;;;;;;1999.90;999.90;;;;;;;11.98;59.21;101874.72;15545747;28;20052;-61
2021/10/23 08:48:17;;;;;;;1999.90;999.90;;;;;;;11.92;60.08;101877.97;15559653;28;20056;-62
2021/10/23 08:55:52;;;;;;;1999.90;999.90;;;;;;;12.09;59.68;101878.13;15550988;28;20046;-61
2021/10/23 09:03:24;;;;;;;1999.90;999.90;;;;;;;12.39;59.05;101912.94;15559185;28;20129;-61
2021/10/23 09:10:59;;;;;;;1999.90;999.90;;;;;;;13.38;57.07;101914.63;15558927;28;20046;-60
2021/10/23 09:18:44;;;;;;;1999.90;999.90;;;;;;;12.83;58.41;101934.56;15541328;28;20050;-61
2021/10/23 09:26:32;;;;;;;1999.90;999.90;;;;;;;13.06;57.67;101937.34;15556813;28;20042;-62
2021/10/23 09:34:04;;;;;;;1999.90;999.90;;;;;;;13.55;56.52;101944.72;15558293;28;20038;-62
2021/10/23 09:41:38;;;;;;;1999.90;999.90;;;;;;;14.40;53.80;101954.50;15503603;28;20078;-63
2021/10/23 09:49:11;;;;;;;1999.90;999.90;;;;;;;14.43;53.99;101967.88;15502324;28;20074;-61
2021/10/23 09:56:51;;;;;;;1999.90;999.90;;;;;;;14.22;53.25;101983.69;15502386;28;20049;-62
2021/10/23 10:04:25;;;;;;;1999.90;999.90;;;;;;;14.99;51.29;101993.34;15499509;28;20043;-62
2021/10/23 10:11:59;;;;;;;;;;;;;;;14.31;53.90;102007.00;15493095;28;20101;-60
2021/10/23 10:19:31;;;;;;;1999.90;999.90;;;;;;;13.57;55.03;102004.09;15494648;28;19922;-60
2021/10/23 10:27:07;;;;;;;1999.90;999.90;;;;;;;13.92;54.81;102009.84;15493811;28;20444;-59
2021/10/23 10:42:53;;;;;;;1999.90;999.90;;;;;;;14.34;53.92;102040.03;15503093;28;20050;-61
2021/10/23 10:50:34;;;;;;;1999.90;999.90;;;;;;;13.38;56.25;102028.75;15498697;28;20042;-60
2021/10/23 10:58:10;;;;;;;1999.90;999.90;;;;;;;14.12;55.53;102037.34;15492857;28;20551;-61
2021/10/23 11:05:42;;;;;;;1999.90;999.90;;;;;;;14.19;54.42;102032.09;15501893;28;20050;-59
2021/10/23 11:13:26;;;;;;;1999.90;999.90;;;;;;;17.08;47.62;102039.06;15504984;28;20074;-60
2021/10/23 11:20:59;;;;;;;1999.90;999.90;;;;;;;18.73;44.93;102047.22;15502937;28;20042;-60
2021/10/23 11:28:33;;;;;;;1999.90;999.90;;;;;;;20.52;41.87;102056.63;15504001;28;20069;-59
2021/10/23 11:36:14;;;;;;;1999.90;999.90;;;;;;;19.26;41.23;102065.78;15514609;28;20042;-58
2021/10/23 11:43:48;;;;;;;1999.90;999.90;;;;;;;18.29;43.41;102083.75;15548342;28;20049;-60
2021/10/23 11:51:21;;;;;;;1999.90;999.90;;;;;;;16.01;48.07;102068.59;15563633;28;20064;-61
2021/10/23 11:58:58;;;;;;;1999.90;999.90;;;;;;;16.78;45.82;102089.91;15564487;28;20049;-60
2021/10/23 12:06:38;;;;;;;1999.90;999.90;;;;;;;18.57;43.97;102100.00;15563883;28;20558;-61
2021/10/23 12:14:14;;;;;;;1999.90;999.90;;;;;;;17.14;44.94;102105.38;15561426;28;20546;-61
2021/10/23 12:21:50;;;;;;;1999.90;999.90;;;;;;;19.03;41.19;102110.78;15560918;28;20170;-61
2021/10/23 12:29:32;;;;;;;1999.90;999.90;;;;;;;16.52;46.55;102112.56;15561593;28;20057;-59
2021/10/23 12:37:05;;;;;;;1999.90;999.90;;;;;;;18.93;41.94;102119.75;15544671;28;20061;-60
2021/10/23 12:44:40;;;;;;;1999.90;999.90;;;;;;;24.81;31.59;102128.38;15498602;28;20047;-61
2021/10/23 12:52:12;;;;;;;1999.90;999.90;;;;;;;25.32;31.62;102139.72;15499225;28;20101;-59
2021/10/23 12:59:46;;;;;;;1999.90;999.90;;;;;;;23.62;33.71;102144.72;15498447;28;20090;-61
2021/10/23 13:07:19;;;;;;;1999.90;999.90;;;;;;;16.22;45.98;102125.81;15497207;28;20081;-60
2021/10/23 13:14:53;;;;;;;1999.90;999.90;;;;;;;17.98;42.73;102121.03;15498471;28;20042;-62
2021/10/23 13:22:27;;;;;;;1999.90;999.90;;;;;;;17.66;43.53;102121.84;15496870;28;20046;-59
2021/10/23 13:30:01;;;;;;;1999.90;999.90;;;;;;;16.80;43.91;102120.56;15497331;28;20109;-58
2021/10/23 13:37:33;;;;;;;1999.90;999.90;;;;;;;15.77;46.36;102134.72;15518676;28;20046;-58
2021/10/23 13:45:08;;;;;;;1999.90;999.90;;;;;;;15.76;47.79;102137.88;15558451;28;20049;-59
2021/10/23 13:52:41;;;;;;;1999.90;999.90;;;;;;;15.59;47.66;102162.03;15557031;28;20149;-60
2021/10/23 14:00:16;;;;;;;1999.90;999.90;;;;;;;15.18;48.73;102151.28;15556934;28;20183;-59
2021/10/23 14:07:49;;;;;;;1999.90;999.90;;;;;;;14.29;50.53;102168.53;15554512;28;20056;-57
2021/10/23 14:15:23;;;;;;;1999.90;999.90;;;;;;;14.02;51.85;102170.38;15554491;28;20403;-58
2021/10/23 14:22:56;;;;;;;1999.90;999.90;;;;;;;14.12;52.29;102181.31;15555326;28;20054;-60
2021/10/23 14:30:30;;;;;;;1999.90;999.90;;;;;;;14.09;53.58;102193.22;15554882;28;20099;-59
2021/10/23 14:38:02;;;;;;;1999.90;999.90;;;;;;;13.61;54.29;102195.84;15539892;28;20521;-58
2021/10/23 14:45:37;;;;;;;1999.90;999.90;;;;;;;13.19;55.84;102209.16;15514866;28;20049;-61
2021/10/23 14:53:10;;;;;;;1999.90;999.90;;;;;;;13.21;56.05;102220.03;15497202;28;20137;-61
2021/10/23 15:00:44;;;;;;;1999.90;999.90;;;;;;;13.20;56.65;102224.81;15515129;28;20113;-58
2021/10/23 15:08:17;;;;;;;1999.90;999.90;;;;;;;12.90;58.32;102231.06;15514479;28;20080;-62
2021/10/23 15:15:51;;;;;;;1999.90;999.90;;;;;;;13.25;58.10;102244.34;15513618;28;20042;-59
2021/10/23 15:23:24;;;;;;;1999.90;999.90;;;;;;;13.00;58.97;102248.47;15514180;28;20112;-59
2021/10/23 15:30:59;;;;;;;1999.90;999.90;;;;;;;12.73;59.50;102250.47;15513146;28;20050;-61
2021/10/23 15:38:40;;;;;;;1999.90;999.90;;;;;;;12.61;59.85;102264.97;15541488;28;20061;-58
2021/10/23 15:46:15;;;;;;;1999.90;999.90;;;;;;;12.61;60.58;102264.97;15573814;28;20481;-57
2021/10/23 15:53:47;;;;;;;1999.90;999.90;;;;;;;12.65;60.21;102280.03;15563554;28;20046;-61
2021/10/23 16:01:21;;;;;;;1999.90;999.90;;;;;;;12.46;60.81;102282.91;15563101;28;20049;-60
2021/10/23 16:08:54;;;;;;;1999.90;999.90;;;;;;;12.22;61.49;102283.06;15562310;28;20108;-61
2021/10/23 16:16:28;;;;;;;1999.90;999.90;;;;;;;11.91;62.35;102305.09;15562497;28;20129;-61
2021/10/23 16:24:00;;;;;;;1999.90;999.90;;;;;;;11.65;62.92;102312.19;15562377;28;20187;-60
2021/10/23 16:31:34;;;;;;;1999.90;999.90;;;;;;;11.40;63.92;102314.19;15562180;28;20138;-60
2021/10/23 16:39:08;;;;;;;1999.90;999.90;;;;;;;11.28;64.11;102338.97;15532354;28;20459;-62
2021/10/23 16:46:43;;;;;;;1999.90;999.90;;;;;;;11.04;64.75;102338.13;15501420;28;20050;-61
2021/10/23 16:54:17;;;;;;;1999.90;999.90;;;;;;;10.76;66.00;102343.47;15500335;28;20053;-60
2021/10/23 17:01:53;;;;;;;1999.90;999.90;;;;;;;10.67;66.27;102356.41;15498743;28;20046;-60
2021/10/23 17:09:28;;;;;;;1999.90;999.90;;;;;;;10.51;66.75;102382.78;15499443;28;20046;-60
2021/10/23 17:17:02;;;;;;;1999.90;999.90;;;;;;;10.39;66.76;102384.00;15497411;28;20652;-61
2021/10/23 17:24:35;;;;;;;1999.90;999.90;;;;;;;10.26;66.48;102394.97;15497972;28;20072;-61
2021/10/23 17:32:09;;;;;;;1999.90;999.90;;;;;;;10.08;66.60;102402.88;15497932;28;20050;-61
2021/10/23 17:39:42;;;;;;;1999.90;999.90;;;;;;;9.84;67.58;102416.69;15534771;28;20060;-62
2021/10/23 17:47:15;;;;;;;1999.90;999.90;;;;;;;9.64;68.23;102415.97;15558577;28;20042;-61
2021/10/23 17:54:48;;;;;;;1999.90;999.90;;;;;;;9.57;68.35;102434.94;15556181;28;20045;-62
2021/10/23 18:02:22;;;;;;;1999.90;999.90;;;;;;;9.48;68.51;102434.69;15555895;28;20054;-61
2021/10/23 18:09:55;;;;;;;1999.90;999.90;;;;;;;9.40;69.01;102436.13;15558877;28;20049;-61
2021/10/23 18:17:35;;;;;;;1999.90;999.90;;;;;;;9.25;69.54;102441.72;15557427;28;20096;-61
2021/10/23 18:25:14;;;;;;;1999.90;999.90;;;;;;;9.17;69.79;102442.28;15559521;28;20122;-61
2021/10/23 18:32:52;;;;;;;1999.90;999.90;;;;;;;9.11;69.99;102460.16;15559881;28;20499;-61
2021/10/23 18:40:26;;;;;;;1999.90;999.90;;;;;;;8.99;70.28;102460.44;15517016;28;20133;-61
2021/10/23 18:48:00;;;;;;;1999.90;999.90;;;;;;;8.96;70.59;102461.84;15495205;28;20049;-60
2021/10/23 18:55:32;;;;;;;1999.90;999.90;;;;;;;8.98;70.89;102463.50;15495098;28;20038;-62
2021/10/23 19:03:06;;;;;;;1999.90;999.90;;;;;;;9.08;71.01;102461.53;15494264;28;20124;-62
2021/10/23 19:10:39;;;;;;;1999.90;999.90;;;;;;;9.22;71.70;102465.41;15493806;28;20582;-62
2021/10/23 19:18:14;;;;;;;1999.90;999.90;;;;;;;9.33;71.61;102469.00;15493793;28;20042;-59
2021/10/23 19:25:47;;;;;;;1999.90;999.90;;;;;;;9.07;70.89;102465.44;15499960;28;20050;-62
2021/10/23 19:33:21;;;;;;;1999.90;999.90;;;;;;;8.84;70.67;102468.78;15509728;28;20051;-62
2021/10/23 19:40:54;;;;;;;1999.90;999.90;;;;;;;8.67;70.22;102481.06;15569640;28;20060;-61
2021/10/23 19:48:28;;;;;;;1999.90;999.90;;;;;;;8.67;71.36;102491.34;15567041;28;20066;-60
2021/10/23 19:56:02;;;;;;;1999.90;999.90;;;;;;;8.68;71.30;102496.63;15563481;28;20060;-59
2021/10/23 20:03:36;;;;;;;1999.90;999.90;;;;;;;8.50;70.78;102502.72;15563521;28;20058;-61
2021/10/23 20:11:09;;;;;;;1999.90;999.90;;;;;;;8.24;70.55;102506.56;15548362;28;20054;-60
2021/10/23 20:18:43;;;;;;;1999.90;999.90;;;;;;;8.22;70.81;102509.56;15562607;28;20133;-62
2021/10/23 20:26:16;;;;;;;1999.90;999.90;;;;;;;8.19;71.87;102515.69;15561431;28;20046;-61
2021/10/23 20:33:50;;;;;;;1999.90;999.90;;;;;;;8.25;72.81;102531.31;15561944;28;20042;-61
2021/10/23 20:41:24;;;;;;;1999.90;999.90;;;;;;;8.51;72.48;102531.38;15509837;28;20057;-61
2021/10/23 20:48:58;;;;;;;1999.90;999.90;;;;;;;8.71;72.59;102530.59;15499032;28;20097;-60
2021/10/23 20:56:30;;;;;;;1999.90;999.90;;;;;;;8.86;72.10;102541.75;15499799;28;20377;-61
2021/10/23 21:04:06;;;;;;;1999.90;999.90;;;;;;;8.91;72.24;102550.94;15498134;28;20050;-62
2021/10/23 21:11:39;;;;;;;1999.90;999.90;;;;;;;8.98;72.18;102556.22;15500318;28;20039;-60
2021/10/23 21:19:15;;;;;;;1999.90;999.90;;;;;;;9.01;72.49;102550.09;15482253;28;20105;-61
2021/10/23 21:26:47;;;;;;;1999.90;999.90;;;;;;;9.05;73.09;102570.69;15497167;28;20133;-61
2021/10/23 21:34:22;;;;;;;1999.90;999.90;;;;;;;9.14;72.80;102570.97;15497321;28;20415;-61
2021/10/23 21:41:55;;;;;;;1999.90;999.90;;;;;;;9.13;72.84;102580.47;15553512;28;20080;-62
2021/10/23 21:49:29;;;;;;;1999.90;999.90;;;;;;;9.11;72.92;102577.13;15568826;23;20462;-72
2021/10/23 21:57:02;;;;;;;1999.90;999.90;;;;;;;9.05;72.98;102565.13;15522798;28;20647;-71
2021/10/23 22:04:36;;;;;;;1999.90;999.90;;;;;;;9.06;72.88;102564.00;15549711;22;20736;-57
2021/10/23 22:12:10;;;;;;;1999.90;999.90;;;;;;;9.11;72.73;102579.91;15470969;28;20057;-60
2021/10/23 22:19:46;;;;;;;1999.90;999.90;;;;;;;9.02;72.35;102571.25;15545284;23;20069;-57
2021/10/23 22:27:19;;;;;;;1999.90;999.90;;;;;;;8.68;72.74;102565.38;15531841;28;20042;-58
2021/10/23 22:34:52;;;;;;;1999.90;999.90;;;;;;;8.62;72.32;102555.34;15497444;28;20125;-57
2021/10/23 22:42:25;;;;;;;1999.90;999.90;;;;;;;8.37;72.06;102558.91;15486446;28;20125;-59
2021/10/23 22:49:59;;;;;;;1999.90;999.90;;;;;;;8.15;71.65;102541.56;15488425;28;20130;-60
2021/10/23 22:57:32;;;;;;;1999.90;999.90;;;;;;;7.82;72.45;102558.38;15491066;28;20130;-56
2021/10/23 23:05:06;;;;;;;1999.90;999.90;;;;;;;7.83;71.82;102567.56;15499487;28;20475;-59
2021/10/23 23:12:39;;;;;;;1999.90;999.90;;;;;;;7.83;72.88;102559.22;15467667;28;20681;-57
2021/10/23 23:20:13;;;;;;;1999.90;999.90;;;;;;;7.85;73.77;102572.84;15481622;28;20042;-63
2021/10/23 23:27:49;;;;;;;1999.90;999.90;;;;;;;7.85;73.71;102573.66;15499425;28;20057;-60
2021/10/23 23:35:23;;;;;;;1999.90;999.90;;;;;;;8.11;74.14;102567.09;15498889;28;20066;-60
2021/10/23 23:42:55;;;;;;;1999.90;999.90;;;;;;;8.21;74.43;102559.91;15499891;28;20058;-57
2021/10/23 23:50:31;;;;;;;1999.90;999.90;;;;;;;8.39;73.77;102579.78;15498836;28;20539;-59
2021/10/23 23:58:03;;;;;;;1999.90;999.90;;;;;;;8.43;74.45;102576.44;15498028;28;20462;-57
